createdAt,value
2018-08-17T00:02:26.620Z,140.82
2018-08-17T00:04:53.917Z,144.28
2018-08-17T00:07:21.539Z,162.32
2018-08-17T00:09:48.851Z,151.65
2018-08-17T00:12:16.756Z,149.53
2018-08-17T00:14:44.431Z,145.87
2018-08-17T00:17:11.979Z,171.87
2018-08-17T00:19:39.512Z,148.22
2018-08-17T00:22:07.100Z,136.80
2018-08-17T00:24:34.643Z,152.00
2018-08-17T00:27:02.183Z,173.05
2018-08-17T00:29:29.495Z,163.40
2018-08-17T00:31:57.340Z,169.35
2018-08-17T00:34:25.087Z,159.93
2018-08-17T00:36:52.488Z,167.03
2018-08-17T00:39:20.124Z,181.43
2018-08-17T00:41:48.788Z,165.10
2018-08-17T00:44:16.104Z,185.05
2018-08-17T00:46:43.826Z,166.90
2018-08-17T00:49:11.204Z,207.90
2018-08-17T00:51:38.600Z,168.45
2018-08-17T00:54:05.945Z,175.75
2018-08-17T00:56:33.304Z,199.15
2018-08-17T00:59:01.017Z,196.73
2018-08-17T01:01:28.356Z,178.93
2018-08-17T01:03:56.445Z,216.40
2018-08-17T01:06:24.440Z,185.12
2018-08-17T01:08:52.139Z,197.70
2018-08-17T01:11:19.660Z,199.65
2018-08-17T01:13:47.617Z,196.80
2018-08-17T01:16:15.540Z,202.70
2018-08-17T01:18:42.872Z,207.35
2018-08-17T01:21:10.258Z,239.55
2018-08-17T01:23:38.252Z,204.07
2018-08-17T01:26:05.618Z,226.73
2018-08-17T01:28:33.546Z,234.30
2018-08-17T01:31:00.930Z,223.47
2018-08-17T01:33:28.345Z,243.27
2018-08-17T01:35:56.568Z,232.63
2018-08-17T01:38:24.230Z,243.67
2018-08-17T01:40:51.790Z,236.90
2018-08-17T01:43:19.185Z,244.22
2018-08-17T01:45:46.815Z,245.53
2018-08-17T01:48:14.887Z,249.18
2018-08-17T01:50:42.277Z,244.70
2018-08-17T01:53:09.626Z,251.50
2018-08-17T01:55:37.672Z,229.05
2018-08-17T01:58:05.743Z,267.35
2018-08-17T02:00:33.164Z,227.30
2018-08-17T02:05:39.661Z,268.75
2018-08-17T02:08:07.634Z,240.90
2018-08-17T02:10:35.277Z,264.93
2018-08-17T02:13:03.020Z,227.25
2018-08-17T02:15:30.368Z,231.78
2018-08-17T02:17:57.780Z,227.03
2018-08-17T02:20:25.728Z,231.57
2018-08-17T02:22:53.404Z,200.00
2018-08-17T02:25:21.379Z,217.23
2018-08-17T02:27:49.345Z,222.20
2018-08-17T02:30:17.720Z,238.72
2018-08-17T02:32:46.216Z,241.08
2018-08-17T02:35:14.001Z,213.27
2018-08-17T02:37:41.899Z,230.27
2018-08-17T02:40:09.817Z,256.05
2018-08-17T02:42:37.580Z,236.10
2018-08-17T02:45:05.476Z,222.95
2018-08-17T02:47:33.420Z,230.18
2018-08-17T02:50:01.273Z,238.60
2018-08-17T02:52:29.266Z,238.45
2018-08-17T02:54:56.949Z,262.68
2018-08-17T02:57:24.693Z,236.67
2018-08-17T02:59:52.343Z,233.02
2018-08-17T03:02:20.668Z,251.05
2018-08-17T03:04:48.036Z,236.05
2018-08-17T03:07:15.957Z,235.68
2018-08-17T03:09:43.639Z,227.40
2018-08-17T03:12:10.960Z,224.77
2018-08-17T03:14:38.353Z,226.62
2018-08-17T03:17:05.984Z,210.40
2018-08-17T03:19:33.727Z,227.45
2018-08-17T03:22:01.418Z,218.57
2018-08-17T03:24:29.237Z,197.85
2018-08-17T03:26:56.829Z,246.87
2018-08-17T03:29:24.445Z,204.00
2018-08-17T03:31:51.840Z,241.13
2018-08-17T03:34:19.727Z,228.35
2018-08-17T03:36:47.844Z,216.33
2018-08-17T03:39:15.520Z,238.80
2018-08-17T03:41:42.845Z,210.82
2018-08-17T03:44:10.490Z,207.22
2018-08-17T03:46:39.047Z,221.00
2018-08-17T03:49:06.933Z,227.13
2018-08-17T03:51:34.593Z,211.23
2018-08-17T03:54:02.345Z,235.82
2018-08-17T03:56:30.296Z,220.60
2018-08-17T03:58:58.500Z,210.48
2018-08-17T04:01:25.888Z,229.18
2018-08-17T04:03:54.512Z,235.83
2018-08-17T04:06:22.408Z,207.65
2018-08-17T04:08:49.764Z,249.18
2018-08-17T04:11:17.805Z,231.10
2018-08-17T04:13:45.700Z,235.75
2018-08-17T04:16:13.704Z,250.90
2018-08-17T04:18:46.256Z,246.40
2018-08-17T04:21:13.918Z,246.37
2018-08-17T04:23:41.284Z,219.30
2018-08-17T04:26:08.652Z,253.75
2018-08-17T04:28:37.111Z,237.30
2018-08-17T04:31:04.525Z,224.60
2018-08-17T04:33:32.895Z,187.12
2018-08-17T04:36:01.680Z,212.17
2018-08-17T04:38:29.320Z,244.43
2018-08-17T04:40:56.773Z,233.47
2018-08-17T04:43:24.177Z,210.00
2018-08-17T04:45:52.076Z,232.63
2018-08-17T04:48:19.746Z,248.10
2018-08-17T04:50:47.053Z,231.72
2018-08-17T04:53:14.912Z,209.47
2018-08-17T04:55:42.593Z,253.60
2018-08-17T04:58:10.593Z,268.15
2018-08-17T05:00:38.239Z,230.43
2018-08-17T05:03:05.892Z,263.43
2018-08-17T05:05:33.476Z,198.45
2018-08-17T05:08:01.549Z,246.82
2018-08-17T05:10:29.388Z,242.22
2018-08-17T05:12:56.801Z,202.93
2018-08-17T05:15:24.149Z,246.47
2018-08-17T05:17:52.183Z,226.92
2018-08-17T05:20:19.493Z,212.90
2018-08-17T05:22:47.099Z,203.77
2018-08-17T05:25:15.745Z,207.12
2018-08-17T05:27:43.665Z,216.33
2018-08-17T05:30:11.904Z,206.23
2018-08-17T05:32:39.692Z,210.60
2018-08-17T05:35:07.683Z,196.22
2018-08-17T05:37:35.144Z,190.62
2018-08-17T05:40:02.796Z,231.23
2018-08-17T05:42:30.732Z,158.97
2018-08-17T05:44:58.653Z,201.30
2018-08-17T05:47:27.009Z,211.03
2018-08-17T05:49:55.405Z,195.20
2018-08-17T05:52:23.010Z,224.40
2018-08-17T05:54:50.722Z,212.80
2018-08-17T05:57:18.380Z,261.43
2018-08-17T05:59:46.253Z,186.70
2018-08-17T06:02:14.320Z,215.60
2018-08-17T06:04:41.628Z,218.45
2018-08-17T06:07:09.238Z,214.82
2018-08-17T06:09:36.644Z,224.37
2018-08-17T06:12:04.041Z,213.27
2018-08-17T06:14:31.463Z,243.30
2018-08-17T06:16:59.481Z,234.50
2018-08-17T06:19:27.383Z,236.57
2018-08-17T06:21:55.631Z,224.97
2018-08-17T06:24:23.017Z,210.53
2018-08-17T06:26:50.819Z,202.80
2018-08-17T06:29:18.497Z,212.97
2018-08-17T06:31:45.955Z,222.05
2018-08-17T06:34:13.579Z,189.35
2018-08-17T06:36:41.474Z,192.68
2018-08-17T06:39:09.909Z,172.72
2018-08-17T06:41:37.403Z,167.77
2018-08-17T06:44:05.644Z,178.72
2018-08-17T06:46:33.690Z,162.35
2018-08-17T06:49:01.054Z,170.87
2018-08-17T06:51:29.296Z,161.97
2018-08-17T06:53:56.972Z,196.25
2018-08-17T06:56:25.656Z,172.13
2018-08-17T06:58:53.282Z,180.50
2018-08-17T07:01:22.358Z,192.87
2018-08-17T07:03:49.725Z,191.75
2018-08-17T07:06:17.393Z,188.18
2018-08-17T07:08:44.758Z,204.20
2018-08-17T07:11:12.181Z,210.30
2018-08-17T07:13:39.545Z,212.93
2018-08-17T07:16:07.577Z,228.07
2018-08-17T07:18:34.940Z,191.50
2018-08-17T07:21:02.309Z,220.82
2018-08-17T07:23:30.362Z,231.45
2018-08-17T07:25:57.761Z,211.35
2018-08-17T07:28:25.098Z,197.95
2018-08-17T07:30:52.810Z,194.45
2018-08-17T07:33:20.170Z,175.80
2018-08-17T07:35:47.617Z,198.02
2018-08-17T07:38:15.597Z,175.32
2018-08-17T07:40:43.215Z,175.20
2018-08-17T07:43:10.654Z,196.20
2018-08-17T07:45:38.094Z,169.85
2018-08-17T07:48:06.108Z,190.47
2018-08-17T07:50:33.686Z,196.72
2018-08-17T07:53:01.972Z,176.87
2018-08-17T07:55:29.716Z,195.57
2018-08-17T07:57:57.323Z,187.37
2018-08-17T08:00:25.252Z,212.80
2018-08-17T08:02:52.869Z,199.70
2018-08-17T08:05:21.963Z,221.25
2018-08-17T08:07:49.869Z,214.97
2018-08-17T08:10:17.538Z,212.38
2018-08-17T08:12:45.400Z,226.55
2018-08-17T08:15:13.008Z,223.38
2018-08-17T08:17:40.858Z,252.60
2018-08-17T08:20:13.758Z,252.17
2018-08-17T08:22:41.434Z,286.10
2018-08-17T08:25:09.097Z,352.07
2018-08-17T08:27:37.033Z,364.38
2018-08-17T08:30:05.070Z,345.48
2018-08-17T08:32:32.544Z,321.13
2018-08-17T08:34:59.889Z,300.93
2018-08-17T08:37:27.263Z,288.10
2018-08-17T08:39:54.631Z,291.97
2018-08-17T08:42:22.043Z,288.40
2018-08-17T08:44:49.744Z,275.43
2018-08-17T08:47:17.088Z,280.25
2018-08-17T08:49:45.212Z,317.52
2018-08-17T08:52:12.558Z,275.95
2018-08-17T08:54:40.420Z,266.30
2018-08-17T08:57:07.854Z,245.47
2018-08-17T08:59:35.277Z,262.20
2018-08-17T09:02:03.835Z,274.65
2018-08-17T09:04:31.230Z,241.97
2018-08-17T09:06:58.654Z,250.65
2018-08-17T09:09:26.402Z,251.60
2018-08-17T09:11:54.644Z,261.30
2018-08-17T09:14:22.037Z,244.80
2018-08-17T09:16:50.003Z,250.77
2018-08-17T09:19:17.680Z,269.93
2018-08-17T09:21:45.593Z,242.37
2018-08-17T09:24:12.940Z,281.13
2018-08-17T09:26:40.852Z,248.03
2018-08-17T09:29:08.212Z,264.02
2018-08-17T09:31:36.900Z,261.75
2018-08-17T09:34:04.234Z,264.50
2018-08-17T09:36:31.902Z,250.32
2018-08-17T09:38:59.577Z,244.17
2018-08-17T09:41:27.252Z,246.45
2018-08-17T09:43:54.636Z,272.77
2018-08-17T09:46:21.993Z,279.48
2018-08-17T09:48:49.396Z,275.22
2018-08-17T09:51:16.772Z,255.27
2018-08-17T09:53:44.108Z,301.62
2018-08-17T09:56:12.715Z,302.27
2018-08-17T09:58:40.117Z,291.32
2018-08-17T10:01:13.445Z,282.33
2018-08-17T10:03:44.566Z,314.02
2018-08-17T10:06:17.312Z,292.82
2018-08-17T10:08:50.078Z,285.13
2018-08-17T10:11:17.720Z,286.02
2018-08-17T10:13:45.389Z,311.80
2018-08-17T10:16:12.755Z,273.65
2018-08-17T10:18:43.245Z,241.25
2018-08-17T10:21:10.978Z,266.65
2018-08-17T10:23:38.298Z,254.13
2018-08-17T10:26:05.644Z,259.10
2018-08-17T10:28:33.006Z,256.85
2018-08-17T10:31:01.281Z,280.50
2018-08-17T10:33:28.940Z,270.75
2018-08-17T10:35:56.804Z,309.90
2018-08-17T10:38:24.812Z,337.20
2018-08-17T10:40:52.631Z,288.98
2018-08-17T10:43:21.181Z,281.55
2018-08-17T10:45:48.784Z,300.32
2018-08-17T10:48:16.455Z,264.35
2018-08-17T10:50:44.680Z,230.25
2018-08-17T10:53:12.052Z,308.45
2018-08-17T10:55:44.788Z,322.30
2018-08-17T10:58:13.974Z,297.80
2018-08-17T11:00:41.932Z,340.15
2018-08-17T11:03:10.185Z,355.40
2018-08-17T11:05:37.828Z,292.52
2018-08-17T11:08:05.312Z,339.83
2018-08-17T11:10:33.019Z,355.10
2018-08-17T11:13:00.942Z,383.23
2018-08-17T11:15:28.537Z,343.33
2018-08-17T11:17:56.142Z,374.37
2018-08-17T11:20:23.546Z,356.15
2018-08-17T11:22:51.554Z,418.70
2018-08-17T11:25:19.141Z,392.75
2018-08-17T11:27:47.868Z,383.55
2018-08-17T11:30:15.449Z,393.05
2018-08-17T11:32:42.985Z,355.83
2018-08-17T11:35:10.620Z,345.85
2018-08-17T11:37:38.281Z,357.65
2018-08-17T11:40:06.769Z,337.32
2018-08-17T11:42:37.181Z,319.20
2018-08-17T11:45:11.717Z,309.60
2018-08-17T11:47:40.516Z,317.70
2018-08-17T11:50:08.920Z,318.25
2018-08-17T11:52:40.612Z,294.45
2018-08-17T11:55:08.261Z,298.57
2018-08-17T11:57:35.983Z,308.27
2018-08-17T12:00:03.502Z,326.77
2018-08-17T12:02:30.912Z,323.13
2018-08-17T12:04:58.529Z,291.23
2018-08-17T12:07:25.860Z,348.38
2018-08-17T12:09:59.534Z,295.40
2018-08-17T12:12:26.908Z,341.68
2018-08-17T12:14:58.418Z,304.27
2018-08-17T12:17:29.672Z,341.42
2018-08-17T12:19:57.650Z,334.25
2018-08-17T12:22:25.256Z,324.62
2018-08-17T12:24:52.716Z,357.13
2018-08-17T12:27:20.425Z,346.85
2018-08-17T12:29:48.194Z,409.63
2018-08-17T12:32:16.027Z,356.82
2018-08-17T12:34:44.279Z,367.27
2018-08-17T12:37:11.666Z,365.63
2018-08-17T12:39:39.014Z,393.57
2018-08-17T12:42:06.793Z,352.07
2018-08-17T12:44:34.168Z,336.85
2018-08-17T12:47:01.611Z,363.10
2018-08-17T12:49:29.694Z,337.55
2018-08-17T12:51:57.709Z,304.65
2018-08-17T12:54:34.525Z,347.73
2018-08-17T12:57:03.580Z,342.85
2018-08-17T12:59:31.616Z,322.82
2018-08-17T13:01:59.293Z,313.73
2018-08-17T13:04:35.850Z,351.02
2018-08-17T13:07:06.265Z,303.85
2018-08-17T13:09:34.334Z,336.62
2018-08-17T13:12:02.320Z,332.57
2018-08-17T13:14:30.291Z,339.75
2018-08-17T13:17:01.737Z,332.95
2018-08-17T13:19:29.522Z,328.42
2018-08-17T13:21:57.448Z,311.05
2018-08-17T13:24:25.248Z,333.20
2018-08-17T13:26:52.671Z,310.65
2018-08-17T13:29:20.381Z,300.90
2018-08-17T13:31:47.778Z,320.40
2018-08-17T13:34:15.176Z,294.97
2018-08-17T13:36:42.833Z,266.17
2018-08-17T13:39:11.827Z,280.87
2018-08-17T13:41:39.712Z,260.17
2018-08-17T13:44:08.106Z,294.25
2018-08-17T13:46:35.738Z,267.73
2018-08-17T13:49:03.517Z,267.32
2018-08-17T13:51:31.237Z,244.10
2018-08-17T13:53:58.581Z,220.75
2018-08-17T13:56:25.948Z,243.77
2018-08-17T13:58:53.606Z,234.20
2018-08-17T14:01:21.042Z,227.55
2018-08-17T14:03:48.717Z,217.05
2018-08-17T14:06:16.249Z,208.57
2018-08-17T14:08:43.684Z,182.55
2018-08-17T14:11:11.529Z,196.60
2018-08-17T14:13:39.194Z,161.47
2018-08-17T14:16:06.885Z,170.23
2018-08-17T14:18:34.582Z,176.82
2018-08-17T14:21:02.188Z,174.23
2018-08-17T14:23:29.797Z,168.63
2018-08-17T14:25:57.492Z,152.80
2018-08-17T14:28:25.167Z,162.45
2018-08-17T14:30:52.784Z,150.55
2018-08-17T14:33:20.488Z,172.50
2018-08-17T14:35:47.856Z,173.60
2018-08-17T14:38:16.117Z,160.57
2018-08-17T14:40:43.906Z,163.83
2018-08-17T14:43:11.312Z,156.10
2018-08-17T14:45:38.662Z,156.52
2018-08-17T14:48:06.080Z,183.10
2018-08-17T14:50:33.717Z,225.57
2018-08-17T14:53:01.089Z,150.00
2018-08-17T14:55:28.661Z,157.32
2018-08-17T14:57:56.274Z,170.50
2018-08-17T15:00:23.969Z,166.97
2018-08-17T15:02:51.738Z,173.50
2018-08-17T15:05:19.133Z,173.07
2018-08-17T15:07:46.579Z,150.70
2018-08-17T15:10:15.116Z,168.60
2018-08-17T15:12:43.182Z,185.05
2018-08-17T15:15:11.584Z,162.37
2018-08-17T15:17:39.248Z,197.07
2018-08-17T15:20:07.272Z,194.45
2018-08-17T15:22:34.666Z,169.57
2018-08-17T15:25:02.431Z,158.13
2018-08-17T15:27:30.300Z,196.15
2018-08-17T15:29:57.986Z,155.47
2018-08-17T15:32:25.387Z,199.82
2018-08-17T15:34:52.769Z,170.22
2018-08-17T15:37:20.837Z,201.00
2018-08-17T15:39:48.525Z,177.00
2018-08-17T15:42:16.176Z,184.70
2018-08-17T15:44:43.771Z,165.10
2018-08-17T15:47:11.397Z,216.95
2018-08-17T15:49:38.778Z,208.20
2018-08-17T15:52:06.931Z,191.43
2018-08-17T15:54:34.606Z,233.45
2018-08-17T15:57:02.022Z,281.00
2018-08-17T15:59:29.688Z,228.20
2018-08-17T16:01:57.121Z,218.73
2018-08-17T16:04:24.586Z,207.97
2018-08-17T16:06:52.256Z,233.53
2018-08-17T16:09:19.678Z,245.10
2018-08-17T16:11:47.722Z,225.10
2018-08-17T16:14:16.197Z,180.35
2018-08-17T16:16:43.915Z,203.67
2018-08-17T16:19:11.580Z,216.93
2018-08-17T16:21:39.020Z,250.60
2018-08-17T16:24:06.843Z,199.68
2018-08-17T16:26:34.510Z,211.60
2018-08-17T16:29:03.232Z,213.13
2018-08-17T16:31:36.137Z,209.57
2018-08-17T16:34:03.642Z,235.63
2018-08-17T16:36:31.504Z,257.12
2018-08-17T16:38:58.865Z,236.25
2018-08-17T16:41:26.233Z,204.45
2018-08-17T16:43:53.910Z,246.83
2018-08-17T16:46:21.645Z,174.15
2018-08-17T16:48:49.098Z,194.20
2018-08-17T16:51:16.765Z,200.00
2018-08-17T16:53:44.214Z,179.55
2018-08-17T16:56:11.888Z,213.62
2018-08-17T16:58:39.565Z,172.45
2018-08-17T17:01:08.896Z,170.65
2018-08-17T17:03:37.162Z,176.02
2018-08-17T17:06:05.572Z,185.10
2018-08-17T17:08:33.198Z,178.57
2018-08-17T17:11:01.363Z,159.20
2018-08-17T17:13:29.128Z,159.50
2018-08-17T17:15:56.827Z,182.95
2018-08-17T17:18:24.533Z,184.07
2018-08-17T17:20:52.211Z,207.33
2018-08-17T17:23:19.568Z,205.55
2018-08-17T17:25:46.959Z,210.00
2018-08-17T17:28:14.619Z,201.62
2018-08-17T17:30:47.589Z,208.40
2018-08-17T17:33:15.381Z,233.65
2018-08-17T17:35:43.552Z,204.30
2018-08-17T17:38:11.402Z,200.47
2018-08-17T17:40:39.449Z,162.75
2018-08-17T17:43:06.968Z,185.80
2018-08-17T17:45:34.613Z,185.88
2018-08-17T17:48:02.947Z,180.82
2018-08-17T17:50:30.625Z,153.93
2018-08-17T17:52:58.951Z,150.10
2018-08-17T17:55:29.937Z,140.37
2018-08-17T17:57:57.577Z,145.57
2018-08-17T18:00:24.954Z,152.02
2018-08-17T18:02:52.342Z,161.82
2018-08-17T18:05:20.208Z,127.65
2018-08-17T18:07:48.764Z,137.25
2018-08-17T18:10:17.126Z,144.47
2018-08-17T18:12:44.730Z,154.30
2018-08-17T18:15:12.688Z,122.07
2018-08-17T18:17:40.476Z,136.03
2018-08-17T18:20:08.393Z,131.70
2018-08-17T18:22:35.777Z,126.85
2018-08-17T18:25:07.814Z,150.63
2018-08-17T18:27:35.877Z,131.78
2018-08-17T18:30:03.401Z,129.47
2018-08-17T18:32:31.081Z,142.28
2018-08-17T18:34:58.704Z,138.00
2018-08-17T18:37:26.196Z,137.35
2018-08-17T18:39:54.520Z,133.80
2018-08-17T18:42:22.274Z,145.17
2018-08-17T18:44:49.855Z,131.00
2018-08-17T18:47:17.604Z,131.32
2018-08-17T18:49:45.275Z,144.40
2018-08-17T18:52:12.677Z,144.30
2018-08-17T18:54:40.069Z,160.77
2018-08-17T18:57:07.716Z,135.20
2018-08-17T18:59:35.105Z,147.43
2018-08-17T19:02:02.606Z,168.43
2018-08-17T19:04:30.050Z,143.30
2018-08-17T19:06:57.725Z,135.57
2018-08-17T19:09:25.371Z,145.60
2018-08-17T19:11:52.918Z,128.33
2018-08-17T19:14:20.938Z,132.18
2018-08-17T19:16:48.290Z,137.65
2018-08-17T19:19:15.944Z,149.95
2018-08-17T19:21:43.310Z,153.53
2018-08-17T19:24:11.413Z,135.25
2018-08-17T19:26:39.380Z,136.82
2018-08-17T19:29:07.032Z,126.78
2018-08-17T19:31:34.794Z,151.90
2018-08-17T19:34:02.768Z,143.32
2018-08-17T19:36:30.484Z,140.97
2018-08-17T19:38:57.854Z,141.43
2018-08-17T19:41:25.297Z,132.27
2018-08-17T19:43:52.912Z,151.63
2018-08-17T19:46:20.510Z,121.90
2018-08-17T19:48:47.972Z,126.60
2018-08-17T19:51:17.755Z,122.13
2018-08-17T19:53:45.144Z,142.90
2018-08-17T19:56:12.862Z,130.75
2018-08-17T19:58:40.929Z,142.47
2018-08-17T20:01:08.594Z,123.82
2018-08-17T20:03:36.273Z,157.20
2018-08-17T20:06:03.700Z,147.82
2018-08-17T20:08:31.052Z,120.02
2018-08-17T20:10:59.014Z,158.70
2018-08-17T20:13:26.367Z,125.97
2018-08-17T20:15:53.981Z,144.00
2018-08-17T20:18:21.409Z,137.37
2018-08-17T20:20:48.788Z,163.73
2018-08-17T20:23:16.384Z,166.20
2018-08-17T20:25:44.062Z,128.18
2018-08-17T20:28:12.016Z,143.00
2018-08-17T20:30:39.800Z,121.60
2018-08-17T20:33:11.203Z,131.47
2018-08-17T20:35:39.341Z,139.85
2018-08-17T20:38:06.660Z,115.05
2018-08-17T20:40:34.369Z,132.32
2018-08-17T20:43:02.365Z,150.62
2018-08-17T20:45:30.306Z,165.30
2018-08-17T20:47:57.734Z,150.27
2018-08-17T20:50:25.978Z,139.83
2018-08-17T20:52:59.180Z,148.72
2018-08-17T20:55:26.775Z,154.80
2018-08-17T20:57:55.403Z,169.05
2018-08-17T21:00:24.498Z,137.80
2018-08-17T21:02:51.830Z,152.85
2018-08-17T21:05:19.595Z,157.23
2018-08-17T21:07:48.129Z,135.57
2018-08-17T21:10:15.768Z,156.40
2018-08-17T21:12:43.570Z,142.60
2018-08-17T21:15:11.003Z,152.47
2018-08-17T21:17:38.661Z,168.32
2018-08-17T21:20:06.086Z,147.75
2018-08-17T21:22:33.708Z,149.97
2018-08-17T21:25:01.378Z,171.87
2018-08-17T21:27:28.777Z,148.65
2018-08-17T21:29:56.472Z,160.33
2018-08-17T21:32:27.146Z,155.22
2018-08-17T21:34:55.951Z,136.97
2018-08-17T21:37:25.165Z,155.48
2018-08-17T21:39:52.677Z,163.97
2018-08-17T21:42:20.334Z,158.25
2018-08-17T21:44:47.686Z,168.28
2018-08-17T21:47:15.342Z,140.82
2018-08-17T21:49:43.680Z,158.43
2018-08-17T21:52:15.392Z,168.10
2018-08-17T21:54:43.741Z,170.53
2018-08-17T21:57:11.138Z,142.40
2018-08-17T21:59:50.154Z,148.93
2018-08-17T22:02:18.140Z,137.33
2018-08-17T22:04:45.806Z,164.72
2018-08-17T22:07:18.808Z,169.53
2018-08-17T22:09:46.185Z,142.03
2018-08-17T22:12:14.309Z,141.55
2018-08-17T22:14:42.386Z,162.05
2018-08-17T22:17:15.377Z,145.50
2018-08-17T22:19:43.682Z,148.07
2018-08-17T22:22:13.568Z,133.97
2018-08-17T22:24:56.700Z,145.17
2018-08-17T22:27:25.084Z,146.90
2018-08-17T22:29:54.074Z,145.33
2018-08-17T22:32:22.856Z,137.92
2018-08-17T22:34:50.561Z,138.28
2018-08-17T22:37:18.502Z,137.20
2018-08-17T22:39:46.172Z,151.00
2018-08-17T22:42:15.373Z,153.62
2018-08-17T22:44:42.797Z,127.35
2018-08-17T22:47:20.105Z,139.10
2018-08-17T22:49:48.996Z,152.45
2018-08-17T22:52:16.308Z,134.55
2018-08-17T22:54:49.769Z,139.07
2018-08-17T22:57:17.620Z,127.58
2018-08-17T22:59:45.381Z,118.40
2018-08-17T23:02:12.804Z,139.70
2018-08-17T23:04:41.008Z,144.68
2018-08-17T23:07:08.807Z,137.40
2018-08-17T23:09:36.428Z,137.75
2018-08-17T23:12:04.114Z,136.10
2018-08-17T23:14:32.018Z,140.15
2018-08-17T23:17:00.172Z,129.65
2018-08-17T23:19:28.330Z,142.98
2018-08-17T23:21:55.693Z,131.52
2018-08-17T23:24:23.658Z,134.55
2018-08-17T23:26:51.364Z,112.65
2018-08-17T23:29:18.712Z,143.22
2018-08-17T23:31:46.387Z,110.63
2018-08-17T23:34:13.877Z,151.57
2018-08-17T23:36:41.625Z,145.30
2018-08-17T23:39:09.929Z,138.57
2018-08-17T23:41:37.505Z,111.12
2018-08-17T23:44:05.854Z,119.23
2018-08-17T23:46:33.529Z,126.90
2018-08-17T23:49:00.920Z,124.35
2018-08-17T23:51:28.504Z,111.50
2018-08-17T23:53:56.202Z,110.15
2018-08-17T23:56:23.844Z,129.33
2018-08-17T23:58:51.596Z,121.72
